M/V Alton St. Amant — WDE7604 — position and weather

sailwx.info

Track history (hours):
 
Tides and Currents Weather Stations Pressure Air Temp Water Temp Dewpoint Dewpoint Depression Visibility Wind Speed Wind Dir Waves Ship Positions

M/V Alton St. Amant

Owner: The Barge Investment Group Five, L.L.C., Harahan, LA. More information available from US FCC via Universal Licensing System and Coast Guard Vessel Documentation Center.

Last reported at 2014-Dec-19 23:15 UTC. Time now 2014-Dec-21 08:30 UTC.
Position N 29°16' W 094°59'.

Length 25 m; draft 2.9 m.

Type: Towing. MMSI: 367395270.

Date/timePositionNaut miles runAvg speedWind from/ knotsBaromVisibWave heightAir tempDewpointWater temp
2014-Dec-19 23:15N 29°16' W 094°59'0 0.1
2014-Dec-19 22:32N 29°16' W 094°59'0 0.0
2014-Dec-19 21:34N 29°16' W 094°59'0 0.0
2014-Dec-19 20:33N 29°16' W 094°59'  
2014-Dec-16 08:33N 29°31' W 094°53'6 5.9
2014-Dec-16 07:33N 29°35' W 094°56'6 5.8
2014-Dec-16 06:34N 29°41' W 094°59'5 5.4
2014-Dec-16 05:34N 29°44' W 095°04'2 2.0
2014-Dec-16 04:33N 29°46' W 095°05'0 0.0
2014-Dec-16 03:32N 29°46' W 095°05'0 0.0
2014-Dec-16 02:33N 29°46' W 095°05'0 0.0
2014-Dec-16 01:31N 29°46' W 095°05'0 0.1
2014-Dec-16 00:31N 29°46' W 095°05'1 0.7
2014-Dec-15 23:34N 29°47' W 095°05'1 0.6
2014-Dec-15 22:33N 29°47' W 095°05'0 0.0
2014-Dec-15 21:33N 29°47' W 095°05'0 0.0
2014-Dec-15 20:33N 29°47' W 095°05'0 0.0
2014-Dec-15 19:34N 29°47' W 095°05'0 0.0
2014-Dec-15 18:33N 29°47' W 095°05'0 0.0
2014-Dec-15 17:34N 29°47' W 095°05'0 0.2
2014-Dec-15 16:34N 29°47' W 095°05'0 0.2
2014-Dec-15 15:31N 29°47' W 095°05'0 0.0
2014-Dec-15 14:34N 29°47' W 095°05'0 0.0
2014-Dec-15 13:13N 29°47' W 095°05'0 0.0
2014-Dec-14 23:22N 29°47' W 095°05'0 0.0
2014-Dec-14 22:27N 29°47' W 095°05'3 2.8
2014-Dec-14 21:33N 29°45' W 095°04'5 5.5
2014-Dec-14 20:33N 29°41' W 094°59'3 2.8
2014-Dec-14 19:34N 29°41' W 094°56'2 1.5
2014-Dec-14 18:33N 29°42' W 094°56'1 0.8
2014-Dec-14 17:31N 29°43' W 094°56'0 0.0
2014-Dec-14 16:33N 29°43' W 094°56'0 0.0
2014-Dec-14 15:34N 29°43' W 094°56'0 0.0
2014-Dec-14 14:33N 29°43' W 094°56'0 0.0
2014-Dec-14 13:34N 29°43' W 094°56'0 0.0
2014-Dec-14 12:24N 29°43' W 094°56'0 0.0
2014-Dec-14 11:03N 29°43' W 094°56'0 0.0
2014-Dec-14 10:11N 29°43' W 094°56'0 0.0
2014-Dec-14 07:25N 29°43' W 094°56'0 0.0
2014-Dec-14 06:23N 29°43' W 094°56'0 0.0
2014-Dec-14 04:06N 29°43' W 094°56'0 0.0
2014-Dec-13 23:23N 29°43' W 094°56'0 0.0
2014-Dec-13 22:33N 29°43' W 094°56'0 0.0
2014-Dec-13 21:33N 29°43' W 094°56'0 0.0
2014-Dec-13 20:33N 29°43' W 094°56'0 0.0
2014-Dec-13 19:30N 29°43' W 094°56'0 0.1
2014-Dec-13 18:33N 29°43' W 094°56'1 0.9
2014-Dec-13 17:31N 29°42' W 094°56'1 0.8
2014-Dec-13 16:34N 29°41' W 094°55'2 2.1
2014-Dec-13 15:32N 29°41' W 094°58'1 1.4
2014-Dec-13 14:33N 29°40' W 094°58'7 7.2
2014-Dec-13 13:33N 29°34' W 094°55'8 7.1
2014-Dec-13 12:22N 29°26' W 094°50'3 0.1
2014-Dec-12 02:16N 29°23' W 094°49'6 8.1
2014-Dec-12 01:33N 29°28' W 094°51'8 8.1
2014-Dec-12 00:34N 29°35' W 094°56'9 8.8
2014-Dec-11 23:33N 29°43' W 095°01'5 5.3
2014-Dec-11 22:33N 29°47' W 095°05'2 1.5
2014-Dec-11 21:33N 29°46' W 095°05'1 0.8
2014-Dec-11 20:33N 29°46' W 095°05'1 1.0
2014-Dec-11 19:33N 29°47' W 095°05'0 0.0
2014-Dec-11 18:34N 29°47' W 095°05'0 0.0
2014-Dec-11 17:33N 29°47' W 095°05'0 0.0
2014-Dec-11 16:34N 29°47' W 095°05'0 0.0
2014-Dec-11 15:34N 29°47' W 095°05'0 0.0
2014-Dec-11 14:33N 29°47' W 095°05'0 0.0
2014-Dec-11 13:33N 29°47' W 095°05'0 0.0
2014-Dec-11 12:33N 29°47' W 095°05'0 0.0
2014-Dec-11 11:33N 29°47' W 095°05'0 0.0
2014-Dec-11 10:33N 29°47' W 095°05'0 0.0
2014-Dec-11 09:33N 29°47' W 095°05'0 0.0
2014-Dec-11 08:33N 29°47' W 095°05'0 0.0
2014-Dec-11 07:34N 29°47' W 095°05'0 0.0
2014-Dec-11 06:34N 29°47' W 095°05'0 0.1
2014-Dec-11 05:34N 29°47' W 095°05'0 0.1
2014-Dec-11 04:33N 29°47' W 095°05'0 0.0
2014-Dec-11 03:34N 29°47' W 095°05'0 0.0
2014-Dec-11 02:34N 29°47' W 095°05'0 0.0
2014-Dec-11 01:33N 29°47' W 095°05'0 0.0
2014-Dec-11 00:34N 29°47' W 095°05'0 0.0
2014-Dec-10 23:34N 29°47' W 095°05'0 0.0
2014-Dec-10 22:34N 29°47' W 095°05'0 0.0
2014-Dec-10 21:34N 29°47' W 095°05'0 0.0
2014-Dec-10 20:34N 29°47' W 095°05'0 0.0
2014-Dec-10 19:34N 29°47' W 095°05'0 0.0
2014-Dec-10 18:33N 29°47' W 095°05'0 0.0
2014-Dec-10 17:33N 29°47' W 095°05'0 0.0
2014-Dec-10 16:33N 29°47' W 095°05'0 0.0
2014-Dec-10 15:33N 29°47' W 095°05'0 0.0
2014-Dec-10 14:34N 29°47' W 095°05'0 0.0
2014-Dec-10 13:33N 29°47' W 095°05'0 0.0
2014-Dec-10 12:33N 29°47' W 095°05'0 0.0
2014-Dec-10 11:33N 29°47' W 095°05'0 0.0
2014-Dec-10 10:33N 29°47' W 095°05'0 0.0
2014-Dec-10 09:34N 29°47' W 095°05'0 0.0
2014-Dec-10 08:34N 29°47' W 095°05'0 0.0
2014-Dec-10 07:34N 29°47' W 095°05'0 0.0
2014-Dec-10 06:34N 29°47' W 095°05'0 0.0
2014-Dec-10 05:33N 29°47' W 095°05'0 0.0
2014-Dec-10 04:34N 29°47' W 095°05'0 0.0
2014-Dec-10 03:33N 29°47' W 095°05'0 0.0
2014-Dec-10 02:33N 29°47' W 095°05'0 0.1
2014-Dec-10 01:33N 29°47' W 095°05'0 0.0
2014-Dec-10 00:34N 29°47' W 095°04'0 0.1
2014-Dec-09 23:33N 29°47' W 095°05'  
Track history (hours):
 
Tides and Currents Weather Stations Pressure Air Temp Water Temp Dewpoint Dewpoint Depression Visibility Wind Speed Wind Dir Waves Ship Positions

M/V Alton St. Amant

Owner: The Barge Investment Group Five, L.L.C., Harahan, LA. More information available from US FCC via Universal Licensing System and Coast Guard Vessel Documentation Center.

Last reported at 2014-Dec-19 23:15 UTC. Time now 2014-Dec-21 08:30 UTC.
Position N 29°16' W 094°59'.

Length 25 m; draft 2.9 m.

Type: Towing. MMSI: 367395270.

Date/timePositionNaut miles runAvg speedWind from/ knotsBaromVisibWave heightAir tempDewpointWater temp
2014-Dec-19 23:15N 29°16' W 094°59'0 0.1
2014-Dec-19 22:32N 29°16' W 094°59'0 0.0
2014-Dec-19 21:34N 29°16' W 094°59'0 0.0
2014-Dec-19 20:33N 29°16' W 094°59'  
2014-Dec-16 08:33N 29°31' W 094°53'6 5.9
2014-Dec-16 07:33N 29°35' W 094°56'6 5.8
2014-Dec-16 06:34N 29°41' W 094°59'5 5.4
2014-Dec-16 05:34N 29°44' W 095°04'2 2.0
2014-Dec-16 04:33N 29°46' W 095°05'0 0.0
2014-Dec-16 03:32N 29°46' W 095°05'0 0.0
2014-Dec-16 02:33N 29°46' W 095°05'0 0.0
2014-Dec-16 01:31N 29°46' W 095°05'0 0.1
2014-Dec-16 00:31N 29°46' W 095°05'1 0.7
2014-Dec-15 23:34N 29°47' W 095°05'1 0.6
2014-Dec-15 22:33N 29°47' W 095°05'0 0.0
2014-Dec-15 21:33N 29°47' W 095°05'0 0.0
2014-Dec-15 20:33N 29°47' W 095°05'0 0.0
2014-Dec-15 19:34N 29°47' W 095°05'0 0.0
2014-Dec-15 18:33N 29°47' W 095°05'0 0.0
2014-Dec-15 17:34N 29°47' W 095°05'0 0.2
2014-Dec-15 16:34N 29°47' W 095°05'0 0.2
2014-Dec-15 15:31N 29°47' W 095°05'0 0.0
2014-Dec-15 14:34N 29°47' W 095°05'0 0.0
2014-Dec-15 13:13N 29°47' W 095°05'0 0.0
2014-Dec-14 23:22N 29°47' W 095°05'0 0.0
2014-Dec-14 22:27N 29°47' W 095°05'3 2.8
2014-Dec-14 21:33N 29°45' W 095°04'5 5.5
2014-Dec-14 20:33N 29°41' W 094°59'3 2.8
2014-Dec-14 19:34N 29°41' W 094°56'2 1.5
2014-Dec-14 18:33N 29°42' W 094°56'1 0.8
2014-Dec-14 17:31N 29°43' W 094°56'0 0.0
2014-Dec-14 16:33N 29°43' W 094°56'0 0.0
2014-Dec-14 15:34N 29°43' W 094°56'0 0.0
2014-Dec-14 14:33N 29°43' W 094°56'0 0.0
2014-Dec-14 13:34N 29°43' W 094°56'0 0.0
2014-Dec-14 12:24N 29°43' W 094°56'0 0.0
2014-Dec-14 11:03N 29°43' W 094°56'0 0.0
2014-Dec-14 10:11N 29°43' W 094°56'0 0.0
2014-Dec-14 07:25N 29°43' W 094°56'0 0.0
2014-Dec-14 06:23N 29°43' W 094°56'0 0.0
2014-Dec-14 04:06N 29°43' W 094°56'0 0.0
2014-Dec-13 23:23N 29°43' W 094°56'0 0.0
2014-Dec-13 22:33N 29°43' W 094°56'0 0.0
2014-Dec-13 21:33N 29°43' W 094°56'0 0.0
2014-Dec-13 20:33N 29°43' W 094°56'0 0.0
2014-Dec-13 19:30N 29°43' W 094°56'0 0.1
2014-Dec-13 18:33N 29°43' W 094°56'1 0.9
2014-Dec-13 17:31N 29°42' W 094°56'1 0.8
2014-Dec-13 16:34N 29°41' W 094°55'2 2.1
2014-Dec-13 15:32N 29°41' W 094°58'1 1.4
2014-Dec-13 14:33N 29°40' W 094°58'7 7.2
2014-Dec-13 13:33N 29°34' W 094°55'8 7.1
2014-Dec-13 12:22N 29°26' W 094°50'3 0.1
2014-Dec-12 02:16N 29°23' W 094°49'6 8.1
2014-Dec-12 01:33N 29°28' W 094°51'8 8.1
2014-Dec-12 00:34N 29°35' W 094°56'9 8.8
2014-Dec-11 23:33N 29°43' W 095°01'5 5.3
2014-Dec-11 22:33N 29°47' W 095°05'2 1.5
2014-Dec-11 21:33N 29°46' W 095°05'1 0.8
2014-Dec-11 20:33N 29°46' W 095°05'1 1.0
2014-Dec-11 19:33N 29°47' W 095°05'0 0.0
2014-Dec-11 18:34N 29°47' W 095°05'0 0.0
2014-Dec-11 17:33N 29°47' W 095°05'0 0.0
2014-Dec-11 16:34N 29°47' W 095°05'0 0.0
2014-Dec-11 15:34N 29°47' W 095°05'0 0.0
2014-Dec-11 14:33N 29°47' W 095°05'0 0.0
2014-Dec-11 13:33N 29°47' W 095°05'0 0.0
2014-Dec-11 12:33N 29°47' W 095°05'0 0.0
2014-Dec-11 11:33N 29°47' W 095°05'0 0.0
2014-Dec-11 10:33N 29°47' W 095°05'0 0.0
2014-Dec-11 09:33N 29°47' W 095°05'0 0.0
2014-Dec-11 08:33N 29°47' W 095°05'0 0.0
2014-Dec-11 07:34N 29°47' W 095°05'0 0.0
2014-Dec-11 06:34N 29°47' W 095°05'0 0.1
2014-Dec-11 05:34N 29°47' W 095°05'0 0.1
2014-Dec-11 04:33N 29°47' W 095°05'0 0.0
2014-Dec-11 03:34N 29°47' W 095°05'0 0.0
2014-Dec-11 02:34N 29°47' W 095°05'0 0.0
2014-Dec-11 01:33N 29°47' W 095°05'0 0.0
2014-Dec-11 00:34N 29°47' W 095°05'0 0.0
2014-Dec-10 23:34N 29°47' W 095°05'0 0.0
2014-Dec-10 22:34N 29°47' W 095°05'0 0.0
2014-Dec-10 21:34N 29°47' W 095°05'0 0.0
2014-Dec-10 20:34N 29°47' W 095°05'0 0.0
2014-Dec-10 19:34N 29°47' W 095°05'0 0.0
2014-Dec-10 18:33N 29°47' W 095°05'0 0.0
2014-Dec-10 17:33N 29°47' W 095°05'0 0.0
2014-Dec-10 16:33N 29°47' W 095°05'0 0.0
2014-Dec-10 15:33N 29°47' W 095°05'0 0.0
2014-Dec-10 14:34N 29°47' W 095°05'0 0.0
2014-Dec-10 13:33N 29°47' W 095°05'0 0.0
2014-Dec-10 12:33N 29°47' W 095°05'0 0.0
2014-Dec-10 11:33N 29°47' W 095°05'0 0.0
2014-Dec-10 10:33N 29°47' W 095°05'0 0.0
2014-Dec-10 09:34N 29°47' W 095°05'0 0.0
2014-Dec-10 08:34N 29°47' W 095°05'0 0.0
2014-Dec-10 07:34N 29°47' W 095°05'0 0.0
2014-Dec-10 06:34N 29°47' W 095°05'0 0.0
2014-Dec-10 05:33N 29°47' W 095°05'0 0.0
2014-Dec-10 04:34N 29°47' W 095°05'0 0.0
2014-Dec-10 03:33N 29°47' W 095°05'0 0.0
2014-Dec-10 02:33N 29°47' W 095°05'0 0.1
2014-Dec-10 01:33N 29°47' W 095°05'0 0.0
2014-Dec-10 00:34N 29°47' W 095°04'0 0.1
2014-Dec-09 23:33N 29°47' W 095°05'  

Dump ship's entire track history